sensor_id;sensor_type;location;lat;lon;timestamp;P1;durP1;ratioP1;P2;durP2;ratioP2
6292;SDS011;3179;54.350;10.102;2022-12-18T00:02:12;19.30;;;12.63;;
6292;SDS011;3179;54.350;10.102;2022-12-18T00:04:39;18.07;;;12.03;;
6292;SDS011;3179;54.350;10.102;2022-12-18T00:07:06;21.40;;;12.73;;
6292;SDS011;3179;54.350;10.102;2022-12-18T00:09:33;19.37;;;13.33;;
6292;SDS011;3179;54.350;10.102;2022-12-18T00:11:59;18.40;;;12.87;;
6292;SDS011;3179;54.350;10.102;2022-12-18T00:14:26;18.87;;;12.27;;
6292;SDS011;3179;54.350;10.102;2022-12-18T00:16:53;19.70;;;12.30;;
6292;SDS011;3179;54.350;10.102;2022-12-18T00:19:21;20.83;;;12.37;;
6292;SDS011;3179;54.350;10.102;2022-12-18T00:21:48;15.33;;;11.33;;
6292;SDS011;3179;54.350;10.102;2022-12-18T00:24:15;17.20;;;12.57;;
6292;SDS011;3179;54.350;10.102;2022-12-18T00:26:41;17.40;;;12.00;;
6292;SDS011;3179;54.350;10.102;2022-12-18T00:29:10;21.10;;;12.63;;
6292;SDS011;3179;54.350;10.102;2022-12-18T00:31:39;21.77;;;12.53;;
6292;SDS011;3179;54.350;10.102;2022-12-18T00:34:08;18.47;;;11.60;;
6292;SDS011;3179;54.350;10.102;2022-12-18T00:36:39;17.30;;;12.73;;
6292;SDS011;3179;54.350;10.102;2022-12-18T00:39:06;18.20;;;11.73;;
6292;SDS011;3179;54.350;10.102;2022-12-18T00:41:33;18.73;;;11.60;;
6292;SDS011;3179;54.350;10.102;2022-12-18T00:44:17;18.00;;;11.97;;
6292;SDS011;3179;54.350;10.102;2022-12-18T00:46:46;18.53;;;11.40;;
6292;SDS011;3179;54.350;10.102;2022-12-18T00:49:13;18.90;;;13.20;;
6292;SDS011;3179;54.350;10.102;2022-12-18T00:51:42;18.20;;;12.03;;
6292;SDS011;3179;54.350;10.102;2022-12-18T00:54:09;13.77;;;10.20;;
6292;SDS011;3179;54.350;10.102;2022-12-18T00:56:36;13.80;;;11.17;;
6292;SDS011;3179;54.350;10.102;2022-12-18T00:59:03;17.57;;;11.77;;
6292;SDS011;3179;54.350;10.102;2022-12-18T01:01:30;16.40;;;11.80;;
6292;SDS011;3179;54.350;10.102;2022-12-18T01:03:59;18.60;;;10.90;;
6292;SDS011;3179;54.350;10.102;2022-12-18T01:06:26;18.23;;;12.80;;
6292;SDS011;3179;54.350;10.102;2022-12-18T01:08:54;19.93;;;12.17;;
6292;SDS011;3179;54.350;10.102;2022-12-18T01:11:21;17.60;;;11.97;;
6292;SDS011;3179;54.350;10.102;2022-12-18T01:13:48;17.33;;;12.00;;
6292;SDS011;3179;54.350;10.102;2022-12-18T01:16:15;16.50;;;11.47;;
6292;SDS011;3179;54.350;10.102;2022-12-18T01:18:43;17.87;;;12.70;;
6292;SDS011;3179;54.350;10.102;2022-12-18T01:21:11;17.07;;;11.00;;
6292;SDS011;3179;54.350;10.102;2022-12-18T01:23:39;16.33;;;11.70;;
6292;SDS011;3179;54.350;10.102;2022-12-18T01:26:08;17.30;;;11.40;;
6292;SDS011;3179;54.350;10.102;2022-12-18T01:28:36;15.50;;;11.43;;
6292;SDS011;3179;54.350;10.102;2022-12-18T01:31:13;19.47;;;11.20;;
6292;SDS011;3179;54.350;10.102;2022-12-18T01:33:41;18.80;;;12.30;;
6292;SDS011;3179;54.350;10.102;2022-12-18T01:36:13;16.13;;;11.83;;
6292;SDS011;3179;54.350;10.102;2022-12-18T01:38:41;16.67;;;10.93;;
6292;SDS011;3179;54.350;10.102;2022-12-18T01:41:10;16.23;;;10.90;;
6292;SDS011;3179;54.350;10.102;2022-12-18T01:43:47;17.47;;;10.50;;
6292;SDS011;3179;54.350;10.102;2022-12-18T01:46:17;14.90;;;10.33;;
6292;SDS011;3179;54.350;10.102;2022-12-18T01:48:45;21.60;;;11.60;;
6292;SDS011;3179;54.350;10.102;2022-12-18T01:51:15;13.87;;;11.03;;
6292;SDS011;3179;54.350;10.102;2022-12-18T01:53:43;16.70;;;10.83;;
6292;SDS011;3179;54.350;10.102;2022-12-18T01:56:13;15.20;;;10.43;;
6292;SDS011;3179;54.350;10.102;2022-12-18T01:58:44;17.53;;;11.13;;
6292;SDS011;3179;54.350;10.102;2022-12-18T02:01:16;13.87;;;10.40;;
6292;SDS011;3179;54.350;10.102;2022-12-18T02:03:43;15.37;;;11.03;;
6292;SDS011;3179;54.350;10.102;2022-12-18T02:06:13;15.87;;;9.60;;
6292;SDS011;3179;54.350;10.102;2022-12-18T02:08:44;17.60;;;11.20;;
6292;SDS011;3179;54.350;10.102;2022-12-18T02:11:26;16.80;;;11.33;;
6292;SDS011;3179;54.350;10.102;2022-12-18T02:14:14;14.10;;;10.00;;
6292;SDS011;3179;54.350;10.102;2022-12-18T02:16:50;15.30;;;10.90;;
6292;SDS011;3179;54.350;10.102;2022-12-18T02:19:27;15.50;;;9.77;;
6292;SDS011;3179;54.350;10.102;2022-12-18T02:22:07;16.00;;;11.03;;
6292;SDS011;3179;54.350;10.102;2022-12-18T02:24:48;12.87;;;8.93;;
6292;SDS011;3179;54.350;10.102;2022-12-18T02:27:27;13.80;;;9.90;;
6292;SDS011;3179;54.350;10.102;2022-12-18T02:29:56;14.47;;;10.73;;
6292;SDS011;3179;54.350;10.102;2022-12-18T02:32:25;17.03;;;10.63;;
6292;SDS011;3179;54.350;10.102;2022-12-18T02:34:54;16.47;;;10.50;;
6292;SDS011;3179;54.350;10.102;2022-12-18T02:37:23;14.53;;;10.10;;
6292;SDS011;3179;54.350;10.102;2022-12-18T02:39:51;13.40;;;10.33;;
6292;SDS011;3179;54.350;10.102;2022-12-18T02:42:20;17.30;;;10.30;;
6292;SDS011;3179;54.350;10.102;2022-12-18T02:44:50;13.60;;;9.47;;
6292;SDS011;3179;54.350;10.102;2022-12-18T02:47:18;17.40;;;10.53;;
6292;SDS011;3179;54.350;10.102;2022-12-18T02:49:49;11.43;;;8.73;;
6292;SDS011;3179;54.350;10.102;2022-12-18T02:52:25;16.07;;;9.67;;
6292;SDS011;3179;54.350;10.102;2022-12-18T02:55:02;13.57;;;9.73;;
6292;SDS011;3179;54.350;10.102;2022-12-18T02:57:42;13.00;;;9.50;;
6292;SDS011;3179;54.350;10.102;2022-12-18T03:00:14;12.10;;;9.43;;
6292;SDS011;3179;54.350;10.102;2022-12-18T03:02:45;15.13;;;10.43;;
6292;SDS011;3179;54.350;10.102;2022-12-18T03:05:15;15.73;;;9.87;;
6292;SDS011;3179;54.350;10.102;2022-12-18T03:07:46;15.20;;;9.23;;
6292;SDS011;3179;54.350;10.102;2022-12-18T03:10:19;13.10;;;9.30;;
6292;SDS011;3179;54.350;10.102;2022-12-18T03:12:51;13.00;;;8.83;;
6292;SDS011;3179;54.350;10.102;2022-12-18T03:15:22;13.87;;;9.90;;
6292;SDS011;3179;54.350;10.102;2022-12-18T03:17:52;13.40;;;9.70;;
6292;SDS011;3179;54.350;10.102;2022-12-18T03:20:22;16.60;;;9.43;;
6292;SDS011;3179;54.350;10.102;2022-12-18T03:22:53;12.43;;;9.03;;
6292;SDS011;3179;54.350;10.102;2022-12-18T03:25:32;12.50;;;9.40;;
6292;SDS011;3179;54.350;10.102;2022-12-18T03:28:00;16.77;;;9.57;;
6292;SDS011;3179;54.350;10.102;2022-12-18T03:30:32;14.67;;;9.20;;
6292;SDS011;3179;54.350;10.102;2022-12-18T03:33:05;13.50;;;10.07;;
6292;SDS011;3179;54.350;10.102;2022-12-18T03:35:35;13.23;;;9.70;;
6292;SDS011;3179;54.350;10.102;2022-12-18T03:38:06;14.00;;;9.60;;
6292;SDS011;3179;54.350;10.102;2022-12-18T03:40:35;11.00;;;8.20;;
6292;SDS011;3179;54.350;10.102;2022-12-18T03:43:10;13.40;;;8.20;;
6292;SDS011;3179;54.350;10.102;2022-12-18T03:45:47;15.73;;;10.07;;
6292;SDS011;3179;54.350;10.102;2022-12-18T03:48:19;13.50;;;8.70;;
6292;SDS011;3179;54.350;10.102;2022-12-18T03:50:53;15.53;;;9.90;;
6292;SDS011;3179;54.350;10.102;2022-12-18T03:53:25;16.03;;;9.17;;
6292;SDS011;3179;54.350;10.102;2022-12-18T03:55:58;15.07;;;8.90;;
6292;SDS011;3179;54.350;10.102;2022-12-18T03:58:26;13.07;;;9.20;;
6292;SDS011;3179;54.350;10.102;2022-12-18T04:00:56;11.90;;;8.80;;
6292;SDS011;3179;54.350;10.102;2022-12-18T04:03:28;13.83;;;8.90;;
6292;SDS011;3179;54.350;10.102;2022-12-18T04:05:57;12.83;;;8.30;;
6292;SDS011;3179;54.350;10.102;2022-12-18T04:08:26;14.63;;;8.87;;
6292;SDS011;3179;54.350;10.102;2022-12-18T04:10:53;18.17;;;11.10;;
6292;SDS011;3179;54.350;10.102;2022-12-18T04:13:23;14.13;;;9.13;;
6292;SDS011;3179;54.350;10.102;2022-12-18T04:15:50;17.30;;;9.40;;
6292;SDS011;3179;54.350;10.102;2022-12-18T04:18:19;13.93;;;9.30;;
6292;SDS011;3179;54.350;10.102;2022-12-18T04:20:46;15.00;;;9.30;;
6292;SDS011;3179;54.350;10.102;2022-12-18T04:23:12;11.33;;;8.70;;
6292;SDS011;3179;54.350;10.102;2022-12-18T04:25:39;14.27;;;8.90;;
6292;SDS011;3179;54.350;10.102;2022-12-18T04:28:06;18.13;;;10.97;;
6292;SDS011;3179;54.350;10.102;2022-12-18T04:30:33;14.03;;;10.13;;
6292;SDS011;3179;54.350;10.102;2022-12-18T04:32:59;16.40;;;10.13;;
6292;SDS011;3179;54.350;10.102;2022-12-18T04:35:28;13.67;;;9.23;;
6292;SDS011;3179;54.350;10.102;2022-12-18T04:37:54;16.07;;;9.50;;
6292;SDS011;3179;54.350;10.102;2022-12-18T04:40:21;12.43;;;9.00;;
6292;SDS011;3179;54.350;10.102;2022-12-18T04:42:48;11.83;;;8.43;;
6292;SDS011;3179;54.350;10.102;2022-12-18T04:45:15;12.40;;;8.97;;
6292;SDS011;3179;54.350;10.102;2022-12-18T04:47:42;11.53;;;8.20;;
6292;SDS011;3179;54.350;10.102;2022-12-18T04:50:09;14.30;;;9.47;;
6292;SDS011;3179;54.350;10.102;2022-12-18T04:52:37;12.90;;;9.30;;
6292;SDS011;3179;54.350;10.102;2022-12-18T04:55:04;13.03;;;8.30;;
6292;SDS011;3179;54.350;10.102;2022-12-18T04:57:31;13.07;;;9.27;;
6292;SDS011;3179;54.350;10.102;2022-12-18T04:59:58;15.03;;;9.50;;
6292;SDS011;3179;54.350;10.102;2022-12-18T05:02:24;15.90;;;10.00;;
6292;SDS011;3179;54.350;10.102;2022-12-18T05:04:52;14.07;;;8.97;;
6292;SDS011;3179;54.350;10.102;2022-12-18T05:07:19;11.67;;;8.17;;
6292;SDS011;3179;54.350;10.102;2022-12-18T05:09:47;13.07;;;9.60;;
6292;SDS011;3179;54.350;10.102;2022-12-18T05:12:13;13.83;;;9.43;;
6292;SDS011;3179;54.350;10.102;2022-12-18T05:14:40;14.17;;;9.10;;
6292;SDS011;3179;54.350;10.102;2022-12-18T05:17:07;12.80;;;8.77;;
6292;SDS011;3179;54.350;10.102;2022-12-18T05:19:34;11.53;;;8.57;;
6292;SDS011;3179;54.350;10.102;2022-12-18T05:22:01;14.90;;;8.50;;
6292;SDS011;3179;54.350;10.102;2022-12-18T05:24:27;14.70;;;8.20;;
6292;SDS011;3179;54.350;10.102;2022-12-18T05:26:56;12.30;;;8.43;;
6292;SDS011;3179;54.350;10.102;2022-12-18T05:29:22;13.00;;;8.00;;
6292;SDS011;3179;54.350;10.102;2022-12-18T05:31:49;10.70;;;8.30;;
6292;SDS011;3179;54.350;10.102;2022-12-18T05:34:16;10.77;;;8.30;;
6292;SDS011;3179;54.350;10.102;2022-12-18T05:36:43;12.40;;;8.60;;
6292;SDS011;3179;54.350;10.102;2022-12-18T05:39:10;12.07;;;8.60;;
6292;SDS011;3179;54.350;10.102;2022-12-18T05:41:36;13.47;;;8.30;;
6292;SDS011;3179;54.350;10.102;2022-12-18T05:44:04;10.13;;;7.40;;
6292;SDS011;3179;54.350;10.102;2022-12-18T05:46:32;15.47;;;8.77;;
6292;SDS011;3179;54.350;10.102;2022-12-18T05:48:59;11.67;;;8.43;;
6292;SDS011;3179;54.350;10.102;2022-12-18T05:51:26;11.90;;;8.80;;
6292;SDS011;3179;54.350;10.102;2022-12-18T05:53:53;16.67;;;8.83;;
6292;SDS011;3179;54.350;10.102;2022-12-18T05:56:21;12.90;;;8.67;;
6292;SDS011;3179;54.350;10.102;2022-12-18T05:58:50;12.57;;;8.87;;
6292;SDS011;3179;54.350;10.102;2022-12-18T06:01:20;10.73;;;8.00;;
6292;SDS011;3179;54.350;10.102;2022-12-18T06:03:49;12.07;;;8.17;;
6292;SDS011;3179;54.350;10.102;2022-12-18T06:06:17;13.60;;;8.50;;
6292;SDS011;3179;54.350;10.102;2022-12-18T06:08:46;12.17;;;8.20;;
6292;SDS011;3179;54.350;10.102;2022-12-18T06:11:15;12.13;;;8.97;;
6292;SDS011;3179;54.350;10.102;2022-12-18T06:13:43;12.10;;;8.30;;
6292;SDS011;3179;54.350;10.102;2022-12-18T06:16:10;12.53;;;9.10;;
6292;SDS011;3179;54.350;10.102;2022-12-18T06:18:38;13.27;;;8.00;;
6292;SDS011;3179;54.350;10.102;2022-12-18T06:21:05;13.20;;;7.87;;
6292;SDS011;3179;54.350;10.102;2022-12-18T06:23:32;13.83;;;8.30;;
6292;SDS011;3179;54.350;10.102;2022-12-18T06:26:02;11.40;;;7.77;;
6292;SDS011;3179;54.350;10.102;2022-12-18T06:28:30;11.93;;;7.30;;
6292;SDS011;3179;54.350;10.102;2022-12-18T06:30:57;10.80;;;7.33;;
6292;SDS011;3179;54.350;10.102;2022-12-18T06:33:25;13.90;;;7.57;;
6292;SDS011;3179;54.350;10.102;2022-12-18T06:35:54;12.80;;;7.90;;
6292;SDS011;3179;54.350;10.102;2022-12-18T06:38:26;12.70;;;8.43;;
6292;SDS011;3179;54.350;10.102;2022-12-18T06:40:53;11.10;;;8.47;;
6292;SDS011;3179;54.350;10.102;2022-12-18T06:43:19;12.10;;;8.00;;
6292;SDS011;3179;54.350;10.102;2022-12-18T06:45:46;12.30;;;7.80;;
6292;SDS011;3179;54.350;10.102;2022-12-18T06:48:17;11.87;;;8.10;;
6292;SDS011;3179;54.350;10.102;2022-12-18T06:50:44;13.80;;;7.73;;
6292;SDS011;3179;54.350;10.102;2022-12-18T06:53:12;11.57;;;8.10;;
6292;SDS011;3179;54.350;10.102;2022-12-18T06:55:39;12.00;;;8.07;;
6292;SDS011;3179;54.350;10.102;2022-12-18T06:58:06;13.20;;;7.77;;
6292;SDS011;3179;54.350;10.102;2022-12-18T07:00:32;10.20;;;7.63;;
6292;SDS011;3179;54.350;10.102;2022-12-18T07:02:59;10.80;;;7.87;;
6292;SDS011;3179;54.350;10.102;2022-12-18T07:05:26;9.53;;;7.50;;
6292;SDS011;3179;54.350;10.102;2022-12-18T07:07:52;10.60;;;7.77;;
6292;SDS011;3179;54.350;10.102;2022-12-18T07:10:21;8.63;;;6.50;;
6292;SDS011;3179;54.350;10.102;2022-12-18T07:12:47;12.13;;;7.10;;
6292;SDS011;3179;54.350;10.102;2022-12-18T07:15:14;11.27;;;7.90;;
6292;SDS011;3179;54.350;10.102;2022-12-18T07:17:41;18.27;;;7.90;;
6292;SDS011;3179;54.350;10.102;2022-12-18T07:20:08;12.27;;;8.07;;
6292;SDS011;3179;54.350;10.102;2022-12-18T07:22:36;10.87;;;8.00;;
6292;SDS011;3179;54.350;10.102;2022-12-18T07:25:03;11.80;;;7.87;;
6292;SDS011;3179;54.350;10.102;2022-12-18T07:27:31;9.33;;;7.30;;
6292;SDS011;3179;54.350;10.102;2022-12-18T07:29:58;7.13;;;6.13;;
6292;SDS011;3179;54.350;10.102;2022-12-18T07:32:25;9.07;;;7.13;;
6292;SDS011;3179;54.350;10.102;2022-12-18T07:34:51;9.53;;;7.33;;
6292;SDS011;3179;54.350;10.102;2022-12-18T07:37:18;14.13;;;6.93;;
6292;SDS011;3179;54.350;10.102;2022-12-18T07:39:45;11.53;;;6.83;;
6292;SDS011;3179;54.350;10.102;2022-12-18T07:42:11;7.80;;;6.90;;
6292;SDS011;3179;54.350;10.102;2022-12-18T07:44:58;9.10;;;6.80;;
6292;SDS011;3179;54.350;10.102;2022-12-18T07:47:26;11.37;;;7.70;;
6292;SDS011;3179;54.350;10.102;2022-12-18T07:49:53;7.77;;;6.07;;
6292;SDS011;3179;54.350;10.102;2022-12-18T07:52:20;12.37;;;7.67;;
6292;SDS011;3179;54.350;10.102;2022-12-18T07:54:47;12.33;;;6.90;;
6292;SDS011;3179;54.350;10.102;2022-12-18T07:57:15;10.00;;;7.53;;
6292;SDS011;3179;54.350;10.102;2022-12-18T07:59:42;8.73;;;6.50;;
6292;SDS011;3179;54.350;10.102;2022-12-18T08:02:10;9.53;;;6.77;;
6292;SDS011;3179;54.350;10.102;2022-12-18T08:04:37;8.47;;;6.93;;
6292;SDS011;3179;54.350;10.102;2022-12-18T08:07:03;9.80;;;7.00;;
6292;SDS011;3179;54.350;10.102;2022-12-18T08:09:30;13.27;;;7.87;;
6292;SDS011;3179;54.350;10.102;2022-12-18T08:11:57;10.17;;;7.07;;
6292;SDS011;3179;54.350;10.102;2022-12-18T08:14:24;11.60;;;7.33;;
6292;SDS011;3179;54.350;10.102;2022-12-18T08:16:51;9.70;;;6.90;;
6292;SDS011;3179;54.350;10.102;2022-12-18T08:19:19;11.03;;;6.80;;
6292;SDS011;3179;54.350;10.102;2022-12-18T08:21:45;11.00;;;7.30;;
6292;SDS011;3179;54.350;10.102;2022-12-18T08:24:12;12.67;;;7.83;;
6292;SDS011;3179;54.350;10.102;2022-12-18T08:26:39;10.90;;;7.50;;
6292;SDS011;3179;54.350;10.102;2022-12-18T08:29:06;8.07;;;6.20;;
6292;SDS011;3179;54.350;10.102;2022-12-18T08:31:33;7.50;;;6.30;;
6292;SDS011;3179;54.350;10.102;2022-12-18T08:33:59;8.37;;;6.53;;
6292;SDS011;3179;54.350;10.102;2022-12-18T08:36:28;9.87;;;6.87;;
6292;SDS011;3179;54.350;10.102;2022-12-18T08:38:54;11.40;;;7.27;;
6292;SDS011;3179;54.350;10.102;2022-12-18T08:41:22;11.57;;;7.90;;
6292;SDS011;3179;54.350;10.102;2022-12-18T08:43:49;9.60;;;6.77;;
6292;SDS011;3179;54.350;10.102;2022-12-18T08:46:34;12.07;;;7.20;;
6292;SDS011;3179;54.350;10.102;2022-12-18T08:49:03;10.93;;;6.30;;
6292;SDS011;3179;54.350;10.102;2022-12-18T08:51:32;8.97;;;7.00;;
6292;SDS011;3179;54.350;10.102;2022-12-18T08:53:59;13.00;;;7.57;;
6292;SDS011;3179;54.350;10.102;2022-12-18T08:56:26;9.60;;;7.33;;
6292;SDS011;3179;54.350;10.102;2022-12-18T08:58:54;12.00;;;7.40;;
6292;SDS011;3179;54.350;10.102;2022-12-18T09:01:21;8.10;;;6.10;;
6292;SDS011;3179;54.350;10.102;2022-12-18T09:03:48;11.07;;;7.60;;
6292;SDS011;3179;54.350;10.102;2022-12-18T09:06:16;9.90;;;7.10;;
6292;SDS011;3179;54.350;10.102;2022-12-18T09:08:45;10.33;;;7.10;;
6292;SDS011;3179;54.350;10.102;2022-12-18T09:11:13;8.00;;;6.30;;
6292;SDS011;3179;54.350;10.102;2022-12-18T09:13:41;9.93;;;7.30;;
6292;SDS011;3179;54.350;10.102;2022-12-18T09:16:08;12.17;;;7.60;;
6292;SDS011;3179;54.350;10.102;2022-12-18T09:18:35;10.50;;;6.80;;
6292;SDS011;3179;54.350;10.102;2022-12-18T09:21:07;12.17;;;7.80;;
6292;SDS011;3179;54.350;10.102;2022-12-18T09:23:35;8.50;;;6.60;;
6292;SDS011;3179;54.350;10.102;2022-12-18T09:26:03;11.07;;;7.80;;
6292;SDS011;3179;54.350;10.102;2022-12-18T09:28:30;11.27;;;7.60;;
6292;SDS011;3179;54.350;10.102;2022-12-18T09:30:57;11.03;;;6.80;;
6292;SDS011;3179;54.350;10.102;2022-12-18T09:33:24;10.43;;;7.60;;
6292;SDS011;3179;54.350;10.102;2022-12-18T09:35:50;10.53;;;7.13;;
6292;SDS011;3179;54.350;10.102;2022-12-18T09:38:18;9.70;;;7.30;;
6292;SDS011;3179;54.350;10.102;2022-12-18T09:40:46;10.43;;;6.93;;
6292;SDS011;3179;54.350;10.102;2022-12-18T09:43:17;10.33;;;6.77;;
6292;SDS011;3179;54.350;10.102;2022-12-18T09:45:47;9.50;;;7.10;;
6292;SDS011;3179;54.350;10.102;2022-12-18T09:48:19;11.40;;;7.47;;
6292;SDS011;3179;54.350;10.102;2022-12-18T09:50:49;9.80;;;7.80;;
6292;SDS011;3179;54.350;10.102;2022-12-18T09:53:19;9.67;;;6.90;;
6292;SDS011;3179;54.350;10.102;2022-12-18T09:55:50;11.57;;;7.73;;
6292;SDS011;3179;54.350;10.102;2022-12-18T09:58:20;12.17;;;8.20;;
6292;SDS011;3179;54.350;10.102;2022-12-18T10:00:54;9.93;;;7.20;;
6292;SDS011;3179;54.350;10.102;2022-12-18T10:03:21;11.30;;;7.43;;
6292;SDS011;3179;54.350;10.102;2022-12-18T10:05:51;13.70;;;7.93;;
6292;SDS011;3179;54.350;10.102;2022-12-18T10:08:29;9.97;;;7.17;;
6292;SDS011;3179;54.350;10.102;2022-12-18T10:11:03;14.10;;;8.20;;
6292;SDS011;3179;54.350;10.102;2022-12-18T10:13:49;12.80;;;8.40;;
6292;SDS011;3179;54.350;10.102;2022-12-18T10:16:21;11.10;;;8.03;;
6292;SDS011;3179;54.350;10.102;2022-12-18T10:18:58;11.07;;;8.50;;
6292;SDS011;3179;54.350;10.102;2022-12-18T10:21:36;12.13;;;9.00;;
6292;SDS011;3179;54.350;10.102;2022-12-18T10:24:12;10.73;;;8.73;;
6292;SDS011;3179;54.350;10.102;2022-12-18T10:26:50;11.60;;;8.07;;
6292;SDS011;3179;54.350;10.102;2022-12-18T10:29:20;10.80;;;7.10;;
6292;SDS011;3179;54.350;10.102;2022-12-18T10:31:47;10.83;;;8.03;;
6292;SDS011;3179;54.350;10.102;2022-12-18T10:34:14;9.50;;;7.30;;
6292;SDS011;3179;54.350;10.102;2022-12-18T10:36:41;14.83;;;7.80;;
6292;SDS011;3179;54.350;10.102;2022-12-18T10:39:15;11.83;;;7.57;;
6292;SDS011;3179;54.350;10.102;2022-12-18T10:41:47;10.33;;;8.47;;
6292;SDS011;3179;54.350;10.102;2022-12-18T10:44:17;13.77;;;7.43;;
6292;SDS011;3179;54.350;10.102;2022-12-18T10:46:47;11.40;;;7.40;;
6292;SDS011;3179;54.350;10.102;2022-12-18T10:49:18;12.00;;;7.83;;
6292;SDS011;3179;54.350;10.102;2022-12-18T10:51:47;9.20;;;6.77;;
6292;SDS011;3179;54.350;10.102;2022-12-18T10:54:15;16.40;;;8.27;;
6292;SDS011;3179;54.350;10.102;2022-12-18T10:56:45;11.57;;;8.40;;
6292;SDS011;3179;54.350;10.102;2022-12-18T10:59:15;9.33;;;7.73;;
6292;SDS011;3179;54.350;10.102;2022-12-18T11:01:51;13.50;;;8.53;;
6292;SDS011;3179;54.350;10.102;2022-12-18T11:04:20;14.10;;;8.50;;
6292;SDS011;3179;54.350;10.102;2022-12-18T11:06:55;12.37;;;8.37;;
6292;SDS011;3179;54.350;10.102;2022-12-18T11:09:24;14.07;;;8.67;;
6292;SDS011;3179;54.350;10.102;2022-12-18T11:11:52;9.73;;;7.93;;
6292;SDS011;3179;54.350;10.102;2022-12-18T11:14:21;12.53;;;8.40;;
6292;SDS011;3179;54.350;10.102;2022-12-18T11:16:52;11.73;;;7.77;;
6292;SDS011;3179;54.350;10.102;2022-12-18T11:19:21;14.47;;;9.60;;
6292;SDS011;3179;54.350;10.102;2022-12-18T11:21:54;12.30;;;8.47;;
6292;SDS011;3179;54.350;10.102;2022-12-18T11:24:24;15.43;;;9.83;;
6292;SDS011;3179;54.350;10.102;2022-12-18T11:26:54;13.20;;;9.70;;
6292;SDS011;3179;54.350;10.102;2022-12-18T11:29:23;11.80;;;8.70;;
6292;SDS011;3179;54.350;10.102;2022-12-18T11:32:03;12.03;;;8.27;;
6292;SDS011;3179;54.350;10.102;2022-12-18T11:34:57;12.40;;;8.47;;
6292;SDS011;3179;54.350;10.102;2022-12-18T11:37:29;11.13;;;8.13;;
6292;SDS011;3179;54.350;10.102;2022-12-18T11:39:57;12.07;;;8.37;;
6292;SDS011;3179;54.350;10.102;2022-12-18T11:42:27;11.53;;;7.43;;
6292;SDS011;3179;54.350;10.102;2022-12-18T11:45:02;11.07;;;8.10;;
6292;SDS011;3179;54.350;10.102;2022-12-18T11:47:42;11.17;;;8.23;;
6292;SDS011;3179;54.350;10.102;2022-12-18T11:50:16;11.30;;;8.60;;
6292;SDS011;3179;54.350;10.102;2022-12-18T11:52:45;11.77;;;8.23;;
6292;SDS011;3179;54.350;10.102;2022-12-18T11:55:13;13.70;;;8.30;;
6292;SDS011;3179;54.350;10.102;2022-12-18T11:57:43;10.93;;;7.80;;
6292;SDS011;3179;54.350;10.102;2022-12-18T12:00:18;13.07;;;8.13;;
6292;SDS011;3179;54.350;10.102;2022-12-18T12:02:53;11.10;;;8.00;;
6292;SDS011;3179;54.350;10.102;2022-12-18T12:05:45;9.80;;;7.50;;
6292;SDS011;3179;54.350;10.102;2022-12-18T12:08:21;16.83;;;8.27;;
6292;SDS011;3179;54.350;10.102;2022-12-18T12:10:58;12.13;;;8.80;;
6292;SDS011;3179;54.350;10.102;2022-12-18T12:13:35;10.33;;;7.73;;
6292;SDS011;3179;54.350;10.102;2022-12-18T12:16:12;11.00;;;8.23;;
6292;SDS011;3179;54.350;10.102;2022-12-18T12:18:49;12.37;;;8.47;;
6292;SDS011;3179;54.350;10.102;2022-12-18T12:21:25;11.93;;;8.60;;
6292;SDS011;3179;54.350;10.102;2022-12-18T12:24:00;12.60;;;8.40;;
6292;SDS011;3179;54.350;10.102;2022-12-18T12:26:38;12.80;;;8.30;;
6292;SDS011;3179;54.350;10.102;2022-12-18T12:29:20;13.00;;;8.37;;
6292;SDS011;3179;54.350;10.102;2022-12-18T12:31:58;14.10;;;9.23;;
6292;SDS011;3179;54.350;10.102;2022-12-18T12:34:36;13.80;;;8.87;;
6292;SDS011;3179;54.350;10.102;2022-12-18T12:37:18;14.77;;;9.07;;
6292;SDS011;3179;54.350;10.102;2022-12-18T12:39:54;11.27;;;7.60;;
6292;SDS011;3179;54.350;10.102;2022-12-18T12:42:23;15.60;;;8.20;;
6292;SDS011;3179;54.350;10.102;2022-12-18T12:45:15;12.50;;;8.73;;
6292;SDS011;3179;54.350;10.102;2022-12-18T12:47:45;14.70;;;7.97;;
6292;SDS011;3179;54.350;10.102;2022-12-18T12:50:16;10.73;;;8.20;;
6292;SDS011;3179;54.350;10.102;2022-12-18T12:52:46;9.80;;;7.60;;
6292;SDS011;3179;54.350;10.102;2022-12-18T12:55:16;9.40;;;7.30;;
6292;SDS011;3179;54.350;10.102;2022-12-18T12:57:47;14.30;;;8.27;;
6292;SDS011;3179;54.350;10.102;2022-12-18T13:00:21;18.03;;;8.87;;
6292;SDS011;3179;54.350;10.102;2022-12-18T13:02:51;10.33;;;7.57;;
6292;SDS011;3179;54.350;10.102;2022-12-18T13:05:25;14.00;;;9.10;;
6292;SDS011;3179;54.350;10.102;2022-12-18T13:07:56;11.77;;;9.13;;
6292;SDS011;3179;54.350;10.102;2022-12-18T13:10:32;16.50;;;9.70;;
6292;SDS011;3179;54.350;10.102;2022-12-18T13:13:01;16.80;;;10.40;;
6292;SDS011;3179;54.350;10.102;2022-12-18T13:15:37;23.00;;;12.13;;
6292;SDS011;3179;54.350;10.102;2022-12-18T13:18:10;17.03;;;10.37;;
6292;SDS011;3179;54.350;10.102;2022-12-18T13:20:44;13.90;;;8.93;;
6292;SDS011;3179;54.350;10.102;2022-12-18T13:23:26;11.43;;;8.00;;
6292;SDS011;3179;54.350;10.102;2022-12-18T13:25:55;13.13;;;9.33;;
6292;SDS011;3179;54.350;10.102;2022-12-18T13:28:23;13.73;;;9.03;;
6292;SDS011;3179;54.350;10.102;2022-12-18T13:34:32;12.60;;;8.77;;
6292;SDS011;3179;54.350;10.102;2022-12-18T13:43:15;13.90;;;9.07;;
6292;SDS011;3179;54.350;10.102;2022-12-18T13:45:49;15.17;;;9.73;;
6292;SDS011;3179;54.350;10.102;2022-12-18T13:48:26;15.40;;;8.70;;
6292;SDS011;3179;54.350;10.102;2022-12-18T13:50:56;15.50;;;9.43;;
6292;SDS011;3179;54.350;10.102;2022-12-18T13:53:28;11.40;;;8.47;;
6292;SDS011;3179;54.350;10.102;2022-12-18T13:55:58;15.27;;;9.93;;
6292;SDS011;3179;54.350;10.102;2022-12-18T13:58:25;18.07;;;11.23;;
6292;SDS011;3179;54.350;10.102;2022-12-18T14:00:52;23.23;;;13.27;;
6292;SDS011;3179;54.350;10.102;2022-12-18T14:03:20;24.37;;;13.80;;
6292;SDS011;3179;54.350;10.102;2022-12-18T14:05:52;20.93;;;13.80;;
6292;SDS011;3179;54.350;10.102;2022-12-18T14:08:22;21.57;;;14.13;;
6292;SDS011;3179;54.350;10.102;2022-12-18T14:10:52;22.70;;;13.10;;
6292;SDS011;3179;54.350;10.102;2022-12-18T14:13:20;19.13;;;13.27;;
6292;SDS011;3179;54.350;10.102;2022-12-18T14:15:50;24.20;;;14.87;;
6292;SDS011;3179;54.350;10.102;2022-12-18T14:18:19;20.47;;;14.50;;
6292;SDS011;3179;54.350;10.102;2022-12-18T14:20:49;20.20;;;13.70;;
6292;SDS011;3179;54.350;10.102;2022-12-18T14:23:30;25.73;;;14.73;;
6292;SDS011;3179;54.350;10.102;2022-12-18T14:26:01;21.77;;;13.43;;
6292;SDS011;3179;54.350;10.102;2022-12-18T14:28:29;24.70;;;14.03;;
6292;SDS011;3179;54.350;10.102;2022-12-18T14:30:56;21.90;;;13.37;;
6292;SDS011;3179;54.350;10.102;2022-12-18T14:33:24;19.70;;;12.00;;
6292;SDS011;3179;54.350;10.102;2022-12-18T14:35:53;22.80;;;13.13;;
6292;SDS011;3179;54.350;10.102;2022-12-18T14:38:26;17.53;;;11.60;;
6292;SDS011;3179;54.350;10.102;2022-12-18T14:41:02;20.67;;;12.50;;
6292;SDS011;3179;54.350;10.102;2022-12-18T14:43:32;20.40;;;13.00;;
6292;SDS011;3179;54.350;10.102;2022-12-18T14:46:01;18.40;;;11.80;;
6292;SDS011;3179;54.350;10.102;2022-12-18T14:48:36;18.63;;;12.00;;
6292;SDS011;3179;54.350;10.102;2022-12-18T14:51:05;18.50;;;12.03;;
6292;SDS011;3179;54.350;10.102;2022-12-18T14:53:34;19.30;;;12.20;;
6292;SDS011;3179;54.350;10.102;2022-12-18T14:56:02;18.40;;;11.10;;
6292;SDS011;3179;54.350;10.102;2022-12-18T14:58:36;17.67;;;11.20;;
6292;SDS011;3179;54.350;10.102;2022-12-18T15:01:03;20.67;;;11.80;;
6292;SDS011;3179;54.350;10.102;2022-12-18T15:03:30;20.47;;;11.50;;
6292;SDS011;3179;54.350;10.102;2022-12-18T15:05:58;19.50;;;12.50;;
6292;SDS011;3179;54.350;10.102;2022-12-18T15:08:42;23.07;;;12.87;;
6292;SDS011;3179;54.350;10.102;2022-12-18T15:14:23;20.33;;;11.40;;
6292;SDS011;3179;54.350;10.102;2022-12-18T15:16:57;20.27;;;12.83;;